TimeICT,TemperatureF,Dew PointF,Humidity,Sea Level PressureIn,VisibilityMPH,Wind Direction,Wind SpeedMPH,Gust SpeedMPH,PrecipitationIn,Events,Conditions,WindDirDegrees,DateUTC
1:00 AM,76,75,95,29.82,4,Calm,Calm,,,,Mist,,2012-11-11 18:00:00
6:00 AM,75.2,75.2,100,29.80,1.9,Calm,Calm,-,N/A,,Mostly Cloudy,0,2012-11-11 23:00:00
7:00 AM,76,75,96,29.83,2,Calm,Calm,,,,Mist,,2012-11-12 00:00:00
7:00 AM,75.2,75.2,100,29.83,1.9,Calm,Calm,-,N/A,Rain,Light Rain,0,2012-11-12 00:00:00
8:00 AM,75.2,75.2,100,29.86,1.2,SE,3.5,-,N/A,Rain,Light Rain,130,2012-11-12 01:00:00
9:00 AM,77.0,77.0,100,29.89,1.9,NNW,3.5,-,N/A,Rain,Light Rain,330,2012-11-12 02:00:00
10:00 AM,82.4,77.0,84,29.89,3.1,NE,6.9,-,N/A,,Overcast,50,2012-11-12 03:00:00
11:00 AM,84.2,78.8,84,29.86,5.0,NNE,9.2,-,N/A,,Mostly Cloudy,20,2012-11-12 04:00:00
12:00 PM,86.0,77.0,74,29.83,6.2,NE,11.5,-,N/A,,Scattered Clouds,50,2012-11-12 05:00:00
1:00 PM,87,75,60,29.82,4,ENE,5.8,,,,Mist,60,2012-11-12 06:00:00
1:00 PM,84.2,77.0,79,29.80,6.2,ENE,12.7,-,N/A,,Mostly Cloudy,60,2012-11-12 06:00:00
2:00 PM,87.8,77.0,70,29.77,6.2,ENE,9.2,-,N/A,,Mostly Cloudy,60,2012-11-12 07:00:00
3:00 PM,86.0,77.0,74,29.77,6.2,NE,12.7,-,N/A,,Mostly Cloudy,50,2012-11-12 08:00:00
4:00 PM,84.2,78.8,84,29.74,6.2,NE,10.4,-,N/A,,Scattered Clouds,50,2012-11-12 09:00:00
5:00 PM,84.2,78.8,84,29.77,6.2,NE,8.1,-,N/A,,Mostly Cloudy,40,2012-11-12 10:00:00
6:00 PM,82.4,78.8,89,29.77,6.2,ENE,3.5,-,N/A,,Mostly Cloudy,70,2012-11-12 11:00:00
7:00 PM,82,77,81,29.80,4,Calm,Calm,,,,Mist,,2012-11-12 12:00:00
7:00 PM,80.6,78.8,94,29.80,6.2,ENE,4.6,-,N/A,,Mostly Cloudy,70,2012-11-12 12:00:00
8:00 PM,80.6,77.0,89,29.83,5.0,East,3.5,-,N/A,,Mostly Cloudy,90,2012-11-12 13:00:00
9:00 PM,78.8,77.0,94,29.86,5.0,Calm,Calm,-,N/A,,Mostly Cloudy,0,2012-11-12 14:00:00